createdAt,value
2022-09-28T00:00:07.752Z,7.20
2022-09-28T00:02:42.205Z,6.83
2022-09-28T00:05:11.275Z,6.23
2022-09-28T00:07:39.944Z,7.10
2022-09-28T00:10:10.892Z,6.53
2022-09-28T00:12:39.702Z,6.93
2022-09-28T00:15:09.301Z,6.80
2022-09-28T00:17:37.634Z,6.90
2022-09-28T00:20:08.121Z,7.00
2022-09-28T00:22:36.583Z,6.93
2022-09-28T00:25:05.882Z,6.23
2022-09-28T00:27:34.631Z,6.60
2022-09-28T00:30:03.201Z,6.43
2022-09-28T00:32:32.353Z,6.73
2022-09-28T00:35:00.885Z,6.47
2022-09-28T00:37:30.566Z,6.70
2022-09-28T00:39:59.462Z,7.00
2022-09-28T00:42:28.402Z,6.43
2022-09-28T00:44:58.169Z,7.00
2022-09-28T00:47:43.820Z,7.20
2022-09-28T00:50:18.532Z,6.70
2022-09-28T00:52:54.457Z,7.63
2022-09-28T00:55:31.074Z,8.13
2022-09-28T00:58:04.939Z,7.57
2022-09-28T01:00:33.473Z,7.90
2022-09-28T01:03:02.213Z,7.70
2022-09-28T01:05:31.682Z,8.20
2022-09-28T01:08:03.698Z,8.43
2022-09-28T01:10:33.610Z,8.70
2022-09-28T01:13:04.077Z,8.70
2022-09-28T01:15:40.413Z,9.40
2022-09-28T01:18:18.852Z,8.97
2022-09-28T01:21:01.636Z,9.23
2022-09-28T01:23:55.755Z,9.90
2022-09-28T01:26:49.944Z,11.23
2022-09-28T01:29:24.432Z,10.77
2022-09-28T01:32:08.692Z,10.73
2022-09-28T01:34:43.712Z,10.50
2022-09-28T01:37:17.909Z,11.67
2022-09-28T01:39:49.846Z,10.83
2022-09-28T01:42:23.878Z,11.43
2022-09-28T01:44:56.264Z,11.63
2022-09-28T01:47:28.339Z,11.40
2022-09-28T01:50:05.174Z,13.37
2022-09-28T01:52:41.682Z,13.30
2022-09-28T01:55:15.010Z,13.17
2022-09-28T01:57:52.882Z,14.00
2022-09-28T02:00:24.205Z,14.33
2022-09-28T02:02:57.743Z,15.23
2022-09-28T02:05:38.765Z,16.07
2022-09-28T02:08:11.478Z,15.17
2022-09-28T02:10:48.519Z,16.40
2022-09-28T02:13:25.049Z,16.83
2022-09-28T02:15:58.645Z,18.13
2022-09-28T02:18:27.065Z,17.53
2022-09-28T02:21:07.714Z,16.93
2022-09-28T02:23:40.755Z,18.07
2022-09-28T02:26:15.100Z,19.73
2022-09-28T02:28:45.073Z,17.67
2022-09-28T02:31:13.746Z,18.53
2022-09-28T02:33:45.230Z,18.30
2022-09-28T02:36:14.236Z,19.37
2022-09-28T02:38:42.781Z,18.93
2022-09-28T02:41:22.504Z,19.67
2022-09-28T02:44:03.587Z,18.90
2022-09-28T02:46:44.701Z,18.27
2022-09-28T02:49:29.229Z,20.13
2022-09-28T02:52:20.723Z,21.33
2022-09-28T02:55:20.556Z,18.83
2022-09-28T02:58:15.321Z,18.07
2022-09-28T03:00:52.709Z,19.33
2022-09-28T03:03:30.683Z,19.93
2022-09-28T03:06:04.671Z,20.77
2022-09-28T03:08:43.881Z,21.90
2022-09-28T03:11:19.866Z,23.33
2022-09-28T03:13:52.877Z,24.53
2022-09-28T03:16:28.379Z,26.57
2022-09-28T03:18:56.913Z,28.57
2022-09-28T03:21:28.137Z,29.33
2022-09-28T03:23:56.591Z,29.80
2022-09-28T03:26:25.159Z,29.00
2022-09-28T03:28:56.562Z,30.37
2022-09-28T03:31:28.560Z,31.40
2022-09-28T03:34:00.435Z,29.87
2022-09-28T03:36:29.286Z,30.17
2022-09-28T03:38:59.602Z,30.87
2022-09-28T03:41:29.055Z,31.37
2022-09-28T03:43:57.545Z,30.57
2022-09-28T03:46:33.613Z,30.93
2022-09-28T03:49:07.252Z,30.70
2022-09-28T03:51:35.646Z,30.90
2022-09-28T03:54:04.066Z,28.17
2022-09-28T03:56:32.433Z,29.47
2022-09-28T03:59:01.005Z,28.80
2022-09-28T04:01:31.046Z,29.13
2022-09-28T04:03:59.952Z,28.90
2022-09-28T04:06:28.719Z,27.57
2022-09-28T04:08:57.670Z,27.33
2022-09-28T04:11:26.977Z,27.53
2022-09-28T04:13:55.497Z,27.57
2022-09-28T04:16:24.683Z,27.07
2022-09-28T04:19:04.182Z,27.03
2022-09-28T04:21:55.380Z,24.93
2022-09-28T04:24:24.441Z,26.23
2022-09-28T04:27:13.167Z,23.33
2022-09-28T04:29:43.229Z,23.20
2022-09-28T04:32:13.113Z,22.63
2022-09-28T04:34:44.500Z,22.53
2022-09-28T04:37:13.546Z,20.53
2022-09-28T04:39:46.258Z,22.80
2022-09-28T04:42:19.247Z,22.93
2022-09-28T04:44:48.371Z,21.17
2022-09-28T04:47:16.897Z,21.27
2022-09-28T04:50:11.583Z,20.93
2022-09-28T04:53:01.852Z,20.20
2022-09-28T04:55:32.577Z,19.07
2022-09-28T04:58:03.059Z,20.33
2022-09-28T05:00:35.349Z,20.43
2022-09-28T05:03:26.973Z,20.80
2022-09-28T05:06:16.420Z,20.23
2022-09-28T05:08:47.277Z,19.53
2022-09-28T05:11:16.817Z,20.17
2022-09-28T05:13:48.693Z,20.93
2022-09-28T05:16:20.505Z,20.70
2022-09-28T05:19:07.879Z,20.10
2022-09-28T05:21:37.809Z,18.83
2022-09-28T05:24:07.830Z,19.20
2022-09-28T05:26:39.082Z,19.73
2022-09-28T05:29:09.409Z,18.83
2022-09-28T05:32:07.453Z,17.53
2022-09-28T05:34:39.017Z,18.37
2022-09-28T05:37:11.028Z,19.37
2022-09-28T05:39:39.562Z,18.40
2022-09-28T05:42:08.136Z,17.90
2022-09-28T05:44:38.473Z,17.60
2022-09-28T05:47:07.266Z,17.87
2022-09-28T05:49:35.860Z,18.27
2022-09-28T05:52:04.379Z,17.67
2022-09-28T05:54:36.966Z,18.40
2022-09-28T05:57:07.609Z,16.63
2022-09-28T05:59:36.425Z,17.67
2022-09-28T06:02:06.983Z,17.00
2022-09-28T06:04:35.425Z,18.93
2022-09-28T06:07:04.374Z,16.47
2022-09-28T06:09:33.079Z,16.07
2022-09-28T06:12:06.242Z,15.30
2022-09-28T06:14:44.911Z,16.70
2022-09-28T06:17:13.992Z,15.23
2022-09-28T06:19:45.511Z,14.57
2022-09-28T06:22:16.609Z,14.97
2022-09-28T06:24:52.577Z,14.77
2022-09-28T06:27:22.515Z,14.90
2022-09-28T06:29:51.062Z,15.87
2022-09-28T06:32:19.861Z,16.63
2022-09-28T06:34:56.071Z,14.97
2022-09-28T06:37:27.384Z,13.63
2022-09-28T06:39:56.646Z,14.67
2022-09-28T06:42:27.072Z,12.57
2022-09-28T06:45:25.783Z,14.47
2022-09-28T06:48:26.398Z,13.33
2022-09-28T06:50:55.085Z,14.03
2022-09-28T06:53:29.346Z,14.03
2022-09-28T06:56:05.126Z,13.27
2022-09-28T06:58:37.383Z,12.80
2022-09-28T07:01:06.047Z,12.77
2022-09-28T07:03:44.879Z,12.97
2022-09-28T07:06:48.192Z,13.00
2022-09-28T07:09:48.111Z,11.90
2022-09-28T07:12:30.317Z,12.20
2022-09-28T07:15:05.227Z,12.83
2022-09-28T07:17:44.692Z,11.70
2022-09-28T07:20:20.644Z,12.47
2022-09-28T07:22:54.709Z,13.07
2022-09-28T07:25:25.787Z,12.83
2022-09-28T07:28:21.343Z,12.67
2022-09-28T07:31:21.324Z,11.37
2022-09-28T07:34:07.138Z,13.43
2022-09-28T07:36:59.726Z,12.50
2022-09-28T07:39:28.364Z,13.17
2022-09-28T07:42:02.418Z,12.57
2022-09-28T07:44:31.529Z,13.00
2022-09-28T07:47:02.155Z,12.07
2022-09-28T07:49:54.522Z,11.43
2022-09-28T07:52:39.995Z,11.80
2022-09-28T07:55:20.273Z,11.93
2022-09-28T07:57:56.288Z,11.87
2022-09-28T08:00:48.852Z,10.87
2022-09-28T08:03:20.233Z,11.07
2022-09-28T08:05:48.727Z,10.10
2022-09-28T08:08:18.598Z,9.97
2022-09-28T08:10:47.743Z,8.67
2022-09-28T08:13:27.044Z,8.77
2022-09-28T08:16:15.765Z,8.90
2022-09-28T08:19:14.714Z,8.53
2022-09-28T08:21:45.108Z,7.93
2022-09-28T08:24:15.227Z,7.50
2022-09-28T08:26:44.325Z,6.80
2022-09-28T08:29:16.325Z,6.97
2022-09-28T08:31:44.979Z,7.00
2022-09-28T08:34:42.617Z,6.43
2022-09-28T08:37:34.232Z,6.27
2022-09-28T08:40:24.841Z,6.73
2022-09-28T08:43:25.067Z,6.57
2022-09-28T08:46:27.160Z,6.23
2022-09-28T08:49:26.729Z,6.20
2022-09-28T08:52:16.587Z,5.43
2022-09-28T08:55:12.781Z,5.47
2022-09-28T08:57:50.236Z,5.53
2022-09-28T09:00:23.075Z,5.50
2022-09-28T09:02:51.891Z,6.13
2022-09-28T09:05:29.174Z,4.90
2022-09-28T09:08:19.547Z,4.77
2022-09-28T09:10:53.581Z,4.73
2022-09-28T09:14:06.765Z,5.17
2022-09-28T09:16:46.164Z,5.03
2022-09-28T09:19:36.799Z,5.03
2022-09-28T09:22:40.992Z,4.70
2022-09-28T09:25:20.325Z,4.70
2022-09-28T09:28:32.747Z,4.13
2022-09-28T09:31:11.279Z,4.37
2022-09-28T09:34:02.819Z,4.80
2022-09-28T09:37:08.694Z,4.10
2022-09-28T09:40:30.477Z,5.03
2022-09-28T09:43:16.220Z,4.83
2022-09-28T09:46:12.772Z,4.77
2022-09-28T09:49:06.767Z,3.97
2022-09-28T09:51:43.234Z,4.53
2022-09-28T09:54:19.709Z,4.50
2022-09-28T09:56:55.193Z,4.90
2022-09-28T09:59:45.114Z,4.57
2022-09-28T10:02:25.776Z,4.23
2022-09-28T10:05:08.146Z,4.07
2022-09-28T10:07:43.790Z,3.70
2022-09-28T10:10:17.214Z,3.80
2022-09-28T10:12:52.565Z,3.53
2022-09-28T10:15:27.289Z,3.73
2022-09-28T10:18:20.242Z,3.07
2022-09-28T10:21:07.291Z,2.77
2022-09-28T10:23:45.945Z,3.10
2022-09-28T10:26:25.123Z,3.30
2022-09-28T10:29:00.959Z,2.60
2022-09-28T10:31:42.067Z,2.40
2022-09-28T10:34:20.407Z,2.33
2022-09-28T10:36:55.920Z,2.53
2022-09-28T10:39:36.686Z,2.60
2022-09-28T10:42:08.999Z,2.80
2022-09-28T10:44:51.746Z,2.90
2022-09-28T10:47:30.627Z,2.70
2022-09-28T10:50:01.002Z,2.53
2022-09-28T10:52:36.230Z,2.23
2022-09-28T10:55:28.264Z,2.07
2022-09-28T10:57:56.948Z,2.27
2022-09-28T11:00:38.756Z,2.40
2022-09-28T11:03:22.002Z,2.00
2022-09-28T11:06:00.307Z,2.40
2022-09-28T11:08:33.034Z,1.80
2022-09-28T11:11:10.271Z,2.17
2022-09-28T11:13:49.078Z,1.87
2022-09-28T11:16:28.629Z,2.13
2022-09-28T11:18:58.406Z,2.00
2022-09-28T11:21:31.328Z,2.50
2022-09-28T11:24:19.722Z,1.60
2022-09-28T11:26:52.995Z,1.90
2022-09-28T11:29:32.258Z,2.00
2022-09-28T11:32:22.091Z,1.70
2022-09-28T11:35:19.826Z,1.40
2022-09-28T11:38:05.549Z,1.40
2022-09-28T11:41:18.283Z,1.83
2022-09-28T11:44:09.138Z,1.83
2022-09-28T11:46:50.177Z,2.27
2022-09-28T11:49:31.336Z,2.20
2022-09-28T11:52:08.021Z,2.90
2022-09-28T11:54:42.463Z,2.20
2022-09-28T11:57:17.983Z,1.53
2022-09-28T11:59:57.731Z,1.83
2022-09-28T12:02:31.257Z,1.67
2022-09-28T12:05:20.708Z,1.97
2022-09-28T12:07:54.249Z,1.90
2022-09-28T12:11:01.581Z,1.97
2022-09-28T12:14:11.714Z,2.00
2022-09-28T12:19:42.501Z,2.23
2022-09-28T12:22:19.624Z,1.90
2022-09-28T12:24:52.318Z,1.87
2022-09-28T12:27:28.238Z,2.37
2022-09-28T12:30:04.006Z,2.07
2022-09-28T12:32:40.491Z,2.13
2022-09-28T12:35:15.102Z,2.13
2022-09-28T12:37:58.755Z,2.40
2022-09-28T12:40:38.967Z,2.40
2022-09-28T12:43:34.203Z,1.87
2022-09-28T12:46:24.239Z,2.00
2022-09-28T12:52:30.250Z,2.27
2022-09-28T12:55:36.689Z,3.90
2022-09-28T12:58:26.748Z,3.53
2022-09-28T13:01:07.949Z,2.10
2022-09-28T13:04:12.772Z,1.30
2022-09-28T13:06:55.877Z,1.87
2022-09-28T13:09:26.541Z,1.57
2022-09-28T13:12:20.902Z,1.77
2022-09-28T13:15:16.404Z,2.43
2022-09-28T13:17:59.289Z,1.63
2022-09-28T13:20:40.466Z,1.60
2022-09-28T13:23:16.651Z,1.90
2022-09-28T13:25:51.455Z,2.17
2022-09-28T13:28:27.007Z,1.57
2022-09-28T13:33:37.005Z,1.83
2022-09-28T13:36:26.235Z,2.00
2022-09-28T13:38:55.676Z,1.90
2022-09-28T13:41:31.812Z,2.40
2022-09-28T13:44:33.544Z,2.47
2022-09-28T13:47:20.753Z,1.73
2022-09-28T13:50:03.073Z,1.10
2022-09-28T13:52:46.931Z,1.10
2022-09-28T13:55:36.027Z,1.87
2022-09-28T13:58:15.440Z,1.20
2022-09-28T14:00:51.391Z,0.90
2022-09-28T14:03:29.467Z,1.10
2022-09-28T14:06:11.054Z,1.10
2022-09-28T14:08:45.013Z,1.03
2022-09-28T14:11:50.057Z,1.40
2022-09-28T14:14:50.614Z,0.73
2022-09-28T14:17:55.771Z,1.00
2022-09-28T14:20:32.007Z,1.27
2022-09-28T14:23:27.358Z,1.27
2022-09-28T14:26:21.185Z,0.83
2022-09-28T14:29:05.221Z,1.00
2022-09-28T14:31:35.535Z,1.73
2022-09-28T14:34:08.193Z,2.13
2022-09-28T14:37:00.888Z,1.97
2022-09-28T14:39:52.402Z,2.00
2022-09-28T14:42:23.801Z,1.67
2022-09-28T14:45:30.287Z,4.30
2022-09-28T14:48:21.565Z,1.53
2022-09-28T14:50:55.798Z,1.60
2022-09-28T14:53:26.267Z,1.60
2022-09-28T14:55:59.100Z,1.53
2022-09-28T14:58:29.975Z,1.57
2022-09-28T15:01:06.621Z,1.47
2022-09-28T15:03:36.808Z,2.07
2022-09-28T15:06:05.394Z,2.13
2022-09-28T15:08:40.015Z,2.33
2022-09-28T15:11:15.437Z,2.30
2022-09-28T15:13:44.835Z,2.80
2022-09-28T15:16:15.574Z,2.60
2022-09-28T15:19:15.959Z,2.13
2022-09-28T15:21:47.508Z,2.80
2022-09-28T15:24:30.682Z,2.03
2022-09-28T15:27:00.281Z,1.50
2022-09-28T15:29:31.770Z,1.27
2022-09-28T15:32:00.560Z,1.30
2022-09-28T15:34:56.815Z,0.70
2022-09-28T15:37:28.846Z,0.77
2022-09-28T15:39:59.988Z,1.00
2022-09-28T15:42:31.634Z,1.33
2022-09-28T15:45:26.563Z,1.23
2022-09-28T15:48:18.859Z,1.77
2022-09-28T15:51:02.482Z,1.47
2022-09-28T15:53:31.509Z,3.97
2022-09-28T15:56:10.413Z,5.27
2022-09-28T15:58:40.487Z,2.93
2022-09-28T16:01:36.193Z,2.40
2022-09-28T16:04:56.529Z,2.43
2022-09-28T16:07:29.856Z,2.50
2022-09-28T16:10:07.753Z,2.67
2022-09-28T16:12:50.815Z,2.80
2022-09-28T16:15:22.743Z,2.90
2022-09-28T16:17:53.921Z,2.33
2022-09-28T16:20:29.697Z,2.43
2022-09-28T16:23:05.661Z,2.27
2022-09-28T16:25:35.905Z,2.23
2022-09-28T16:28:07.202Z,2.87
2022-09-28T16:30:36.333Z,2.67
2022-09-28T16:33:07.170Z,2.80
2022-09-28T16:35:52.039Z,3.20
2022-09-28T16:38:21.661Z,2.90
2022-09-28T16:40:53.865Z,2.53
2022-09-28T16:43:29.109Z,2.83
2022-09-28T16:45:59.956Z,2.60
2022-09-28T16:48:35.951Z,2.90
2022-09-28T16:51:04.545Z,3.00
2022-09-28T16:53:50.646Z,2.70
2022-09-28T16:56:19.102Z,2.67
2022-09-28T16:58:50.500Z,3.10
2022-09-28T17:01:19.651Z,2.30
2022-09-28T17:03:50.126Z,2.53
2022-09-28T17:06:20.516Z,2.63
2022-09-28T17:08:48.855Z,2.70
2022-09-28T17:11:24.501Z,2.83
2022-09-28T17:13:59.178Z,3.37
2022-09-28T17:19:22.263Z,4.07
2022-09-28T17:21:52.242Z,4.60
2022-09-28T17:24:21.801Z,4.90
2022-09-28T17:26:52.551Z,4.43
2022-09-28T17:29:22.527Z,4.03
2022-09-28T17:31:50.903Z,4.33
2022-09-28T17:34:20.214Z,3.70
2022-09-28T17:36:49.079Z,4.47
2022-09-28T17:39:19.211Z,3.77
2022-09-28T17:41:47.763Z,4.27
2022-09-28T17:44:16.639Z,4.33
2022-09-28T17:46:49.674Z,4.23
2022-09-28T17:49:18.945Z,4.67
2022-09-28T17:51:47.850Z,3.87
2022-09-28T17:54:19.999Z,4.13
2022-09-28T17:56:49.095Z,3.47
2022-09-28T17:59:19.588Z,3.97
2022-09-28T18:01:49.655Z,3.83
2022-09-28T18:04:40.176Z,4.07
2022-09-28T18:07:07.467Z,5.20
2022-09-28T18:09:36.203Z,4.47
2022-09-28T18:12:06.497Z,4.77
2022-09-28T18:14:35.962Z,4.50
2022-09-28T18:17:06.165Z,4.27
2022-09-28T18:19:34.708Z,3.63
2022-09-28T18:22:03.390Z,3.93
2022-09-28T18:24:32.630Z,4.50
2022-09-28T18:27:01.487Z,4.70
2022-09-28T18:29:33.268Z,5.97
2022-09-28T18:32:02.762Z,6.30
2022-09-28T18:34:32.713Z,6.90
2022-09-28T18:37:01.231Z,6.03
2022-09-28T18:39:30.517Z,6.33
2022-09-28T18:41:59.309Z,5.87
2022-09-28T18:44:27.930Z,5.37
2022-09-28T18:46:56.801Z,6.00
2022-09-28T18:49:25.596Z,6.30
2022-09-28T18:51:55.406Z,5.93
2022-09-28T18:54:24.602Z,6.17
2022-09-28T18:56:57.345Z,7.37
2022-09-28T18:59:26.143Z,5.40
2022-09-28T19:01:54.851Z,6.10
2022-09-28T19:04:23.630Z,5.40
2022-09-28T19:06:54.506Z,5.10
2022-09-28T19:09:26.629Z,5.70
2022-09-28T19:11:55.324Z,5.77
2022-09-28T19:14:23.840Z,6.67
2022-09-28T19:16:53.030Z,7.07
2022-09-28T19:19:22.282Z,6.70
2022-09-28T19:21:50.936Z,6.20
2022-09-28T19:24:21.812Z,6.20
2022-09-28T19:26:53.607Z,8.80
2022-09-28T19:29:22.817Z,7.90
2022-09-28T19:31:52.091Z,8.07
2022-09-28T19:34:24.471Z,6.90
2022-09-28T19:36:53.017Z,7.20
2022-09-28T19:39:21.755Z,7.30
2022-09-28T19:41:52.562Z,7.30
2022-09-28T19:44:28.253Z,7.53
2022-09-28T19:46:58.565Z,8.47
2022-09-28T19:49:32.984Z,8.07
2022-09-28T19:52:13.395Z,7.33
2022-09-28T19:54:45.041Z,7.93
2022-09-28T19:57:16.058Z,8.50
2022-09-28T19:59:48.408Z,9.00
2022-09-28T20:02:19.547Z,9.83
2022-09-28T20:04:48.012Z,8.87
2022-09-28T20:07:16.460Z,8.80
2022-09-28T20:09:45.131Z,9.00
2022-09-28T20:12:14.934Z,11.47
2022-09-28T20:14:43.358Z,12.47
2022-09-28T20:17:11.728Z,13.17
2022-09-28T20:19:40.489Z,11.47
2022-09-28T20:22:08.969Z,11.97
2022-09-28T20:24:37.605Z,12.00
2022-09-28T20:27:06.434Z,12.70
2022-09-28T20:29:36.422Z,11.97
2022-09-28T20:32:05.404Z,13.23
2022-09-28T20:34:35.597Z,12.83
2022-09-28T20:37:06.661Z,12.27
2022-09-28T20:39:35.834Z,12.33
2022-09-28T20:42:04.384Z,12.33
2022-09-28T20:44:32.754Z,10.40
2022-09-28T20:47:03.218Z,10.80
2022-09-28T20:49:32.087Z,11.70
2022-09-28T20:52:00.652Z,10.37
2022-09-28T20:54:29.494Z,11.40
2022-09-28T20:56:58.192Z,12.57
2022-09-28T20:59:27.838Z,12.60
2022-09-28T21:01:56.611Z,11.93
2022-09-28T21:04:27.133Z,13.37
2022-09-28T21:06:55.754Z,14.10
2022-09-28T21:09:24.395Z,13.07
2022-09-28T21:11:52.910Z,13.73
2022-09-28T21:14:21.449Z,13.73
2022-09-28T21:16:49.973Z,14.80
2022-09-28T21:19:18.431Z,14.83
2022-09-28T21:21:48.463Z,15.33
2022-09-28T21:24:17.102Z,14.93
2022-09-28T21:26:45.866Z,14.63
2022-09-28T21:29:15.942Z,15.87
2022-09-28T21:31:46.911Z,15.53
2022-09-28T21:34:19.977Z,13.47
2022-09-28T21:36:52.776Z,13.37
2022-09-28T21:39:21.403Z,12.70
2022-09-28T21:41:50.190Z,12.63
2022-09-28T21:44:18.875Z,11.57
2022-09-28T21:46:47.744Z,11.30
2022-09-28T21:49:16.287Z,10.73
2022-09-28T21:51:47.237Z,11.53
2022-09-28T21:54:17.181Z,9.53
2022-09-28T21:56:45.609Z,10.43
2022-09-28T21:59:14.092Z,10.63
2022-09-28T22:01:42.938Z,10.73
2022-09-28T22:04:12.310Z,10.90
2022-09-28T22:06:41.087Z,10.70
2022-09-28T22:09:09.902Z,10.87
2022-09-28T22:11:39.843Z,9.07
2022-09-28T22:14:08.838Z,9.97
2022-09-28T22:16:37.421Z,10.80
2022-09-28T22:19:05.773Z,10.30
2022-09-28T22:21:35.513Z,11.10
2022-09-28T22:24:07.346Z,10.53
2022-09-28T22:26:38.005Z,11.00
2022-09-28T22:29:09.630Z,11.27
2022-09-28T22:31:39.757Z,10.20
2022-09-28T22:34:09.356Z,8.93
2022-09-28T22:36:37.906Z,9.30
2022-09-28T22:39:06.567Z,10.00
2022-09-28T22:41:34.988Z,10.13
2022-09-28T22:44:03.683Z,10.53
2022-09-28T22:46:33.915Z,10.50
2022-09-28T22:49:02.636Z,9.97
2022-09-28T22:51:31.889Z,11.03
2022-09-28T22:54:01.386Z,11.23
2022-09-28T22:56:30.266Z,10.30
2022-09-28T22:58:58.864Z,10.50
2022-09-28T23:01:29.551Z,10.50
2022-09-28T23:04:00.106Z,12.17
2022-09-28T23:06:30.914Z,10.30
2022-09-28T23:08:59.528Z,12.07
2022-09-28T23:11:28.866Z,13.33
2022-09-28T23:13:59.110Z,12.10
2022-09-28T23:16:28.363Z,11.47
2022-09-28T23:18:57.237Z,11.03
2022-09-28T23:21:28.453Z,11.83
2022-09-28T23:23:58.702Z,11.67
2022-09-28T23:26:29.262Z,13.77
2022-09-28T23:28:58.156Z,14.90
2022-09-28T23:31:28.754Z,12.27
2022-09-28T23:34:01.436Z,12.37
2022-09-28T23:36:31.346Z,12.67
2022-09-28T23:38:59.901Z,12.03
2022-09-28T23:41:28.856Z,11.90
2022-09-28T23:43:57.609Z,11.20
2022-09-28T23:46:26.837Z,10.57
2022-09-28T23:49:01.484Z,10.70
2022-09-28T23:51:34.630Z,9.63
2022-09-28T23:54:05.471Z,10.40
2022-09-28T23:56:34.450Z,10.80
2022-09-28T23:59:03.289Z,9.93
